Latest Coastal Weather Observations for Maria Island

IDT60701

Issued at 12:22 am EST Thursday 1 September 2016 (issued every 10 minutes, with the page automatically refreshed every 10 minutes)

About coastal observations | Map of coastal stations | Coastal observations for TAS | Marine services | Other Formats
Station Details ID: 092124 Name: MARIA ISLAND (POINT LESUEUR) Lat: -42.66 Lon: 148.02 Height: 28.0 m
Data from the previous 72 hours. | See also: Recent months at Maria Island
Date/Time
EST
Temp
°C
Wind Pressure Rain since
9am
mm
Weather Cloud Vis
km
Sea
Height
m
Swell
Dir  Spd
kts
Gust
kts
hPa Trend Height
m
Period
s
Dir
01/12:00am 10.2 NE 3 4 1008.7 - 2.2 - - - - - - -
 
Date/Time
EST
Temp
°C
Wind Pressure Rain since
9am
mm
Weather Cloud Vis
km
Sea
Height
m
Swell
Dir  Spd
kts
Gust
kts
hPa Trend Height
m
Period
s
Dir
31/11:30pm 10.1 NW 4 5 1008.5 - 2.2 - - - - - - -
31/11:00pm 9.9 WNW 5 6 1008.4 - 2.2 - - - - - - -
31/10:30pm 10.6 WNW 3 3 1008.4 - 2.2 - - - - - - -
31/10:00pm 11.1 NE 2 4 1008.3 - 2.2 - - - - - - -
31/09:30pm 11.1 NE 2 3 1008.3 - 2.2 - - - - - - -
31/09:00pm 11.1 E 4 5 1008.3 - 2.2 - - - - - - -
31/08:30pm 11.0 E 3 4 1008.2 - 2.2 - - - - - - -
31/08:00pm 10.8 ESE 3 4 1007.9 - 2.2 - - - - - - -
31/07:30pm 11.6 SSW 5 6 1007.6 - 2.2 - - - - - - -
31/07:00pm 11.3 SE 3 4 1007.4 - 2.2 - - - - - - -
31/06:30pm 11.5 SE 2 3 1007.1 - 1.6 - - - - - - -
31/06:00pm 12.1 SW 12 19 1006.9 - 0.8 Rain - - - - - -
31/05:52pm 13.0 SSW 10 19 1006.8 - 0.2 - - - - - - -
31/05:30pm 14.2 SE 3 4 1005.9 - 0.0 - - - - - - -
31/05:00pm 14.3 NNE 6 6 1005.5 - 0.0 - - - - - - -
31/04:30pm 15.3 NE 4 5 1005.6 - 0.0 - - - - - - -
31/04:00pm 15.4 NE 3 5 1005.4 - 0.0 - - - - - - -
31/03:30pm 13.9 N 5 8 1005.5 - 0.0 - - - - - - -
31/03:00pm 14.7 N 9 12 1005.5 - 0.0 - - - - - - -
31/02:30pm 13.8 N 5 7 1005.6 - 0.0 - - - - - - -
31/02:00pm 14.4 NNW 10 11 1005.8 - 0.0 - - - - - - -
31/01:30pm 14.9 NNW 11 13 1006.0 - 0.0 - - - - - - -
31/01:00pm 16.0 NW 9 10 1006.2 - 0.0 - - - - - - -
31/12:30pm 16.8 NW 11 12 1006.4 - 0.0 - - - - - - -
31/12:00pm 16.4 N 9 11 1007.1 - 0.0 - - - - - - -
31/11:30am 15.8 N 11 12 1007.3 - 0.0 - - - - - - -
31/11:00am 15.4 N 10 10 1007.6 - 0.0 - - - - - - -
31/10:30am 14.5 N 11 13 1008.0 - 0.0 - - - - - - -
31/10:00am 13.9 N 13 15 1008.2 - 0.0 - - - - - - -
31/09:30am 13.6 N 15 16 1008.3 - 0.0 - - - - - - -
31/09:00am 13.2 N 15 17 1008.3 - 3.8 - - - - - - -
31/08:30am 12.8 N 13 14 1008.9 - 3.8 - - - - - - -
31/08:00am 12.2 N 14 15 1008.7 - 3.8 - - - - - - -
31/07:30am 12.0 N 14 17 1009.0 - 3.8 - - - - - - -
31/07:00am 11.5 N 12 14 1009.0 - 3.8 - - - - - - -
31/06:30am 11.4 N 12 14 1008.9 - 3.8 - - - - - - -
31/06:00am 11.6 N 13 17 1009.3 - 3.6 Recent precip. - - - - - -
31/05:30am 11.9 N 13 15 1009.4 - 3.4 - - - - - - -
31/05:00am 11.5 NNW 9 10 1009.7 - 3.2 - - - - - - -
31/04:30am 11.4 N 8 9 1010.1 - 3.2 - - - - - - -
31/04:00am 11.4 N 7 8 1009.8 - 3.0 - - - - - - -
31/03:30am 11.6 N 7 11 1010.3 - 2.6 - - - - - - -
31/03:00am 11.5 N 9 11 1010.2 - 2.4 Recent precip. - - - - - -
31/02:30am 11.6 N 10 12 1010.6 - 2.2 - - - - - - -
31/02:00am 11.7 N 8 12 1011.1 - 1.8 - - - - - - -
31/01:30am 11.9 N 13 14 1012.0 - 1.4 - - - - - - -
31/01:00am 12.0 N 13 15 1012.2 - 1.2 - - - - - - -
31/12:30am 12.2 N 13 16 1012.5 - 1.2 - - - - - - -
31/12:00am 12.2 N 12 14 1012.4 - 1.2 Recent precip. - - - - - -
 
Date/Time
EST
Temp
°C
Wind Pressure Rain since
9am
mm
Weather Cloud Vis
km
Sea
Height
m
Swell
Dir  Spd
kts
Gust
kts
hPa Trend Height
m
Period
s
Dir
30/11:30pm 12.1 N 8 9 1012.7 - 1.0 - - - - - - -
30/11:00pm 12.1 N 9 10 1013.2 - 1.0 - - - - - - -
30/10:30pm 12.2 N 12 14 1013.9 - 1.0 - - - - - - -
30/10:00pm 12.3 NNW 10 11 1014.1 - 1.0 - - - - - - -
30/09:30pm 12.5 N 8 10 1014.4 - 1.0 - - - - - - -
30/09:00pm 13.0 N 11 13 1015.0 - 1.0 - - - - - - -
30/08:30pm 12.8 N 9 12 1015.2 - 1.0 - - - - - - -
30/08:00pm 12.7 NNE 9 11 1015.7 - 1.0 - - - - - - -
30/07:30pm 13.1 NNE 13 19 1016.2 - 1.0 - - - - - - -
30/07:00pm 12.7 NE 8 12 1016.5 - 1.0 - - - - - - -
30/06:30pm 12.2 N 8 10 1016.6 - 1.0 - - - - - - -
30/06:00pm 12.4 N 12 14 1017.4 - 0.8 Recent precip. - - - - - -
30/05:30pm 12.3 N 14 15 1017.8 - 0.6 - - - - - - -
30/05:00pm 12.6 N 12 15 1017.8 - 0.2 - - - - - - -
30/04:30pm 12.6 N 12 17 1018.1 - 0.2 - - - - - - -
30/04:00pm 12.5 N 13 15 1018.3 - 0.2 - - - - - - -
30/03:30pm 12.8 N 15 18 1018.7 - 0.0 - - - - - - -
30/03:00pm 12.5 N 13 16 1019.1 - 0.0 - - - - - - -
30/02:30pm 12.6 N 15 17 1019.2 - 0.0 - - - - - - -
30/02:00pm 12.9 N 12 14 1019.2 - 0.0 - - - - - - -
30/01:30pm 12.3 N 9 10 1019.6 - 0.0 - - - - - - -
30/01:00pm 13.4 N 15 17 1020.0 - 0.0 - - - - - - -
30/12:30pm 12.8 N 14 16 1020.4 - 0.0 - - - - - - -
30/12:00pm 12.9 N 12 13 1021.1 - 0.0 - - - - - - -
30/11:30am 12.3 NNW 9 11 1021.6 - 0.0 - - - - - - -
30/11:00am 12.0 NNW 9 10 1022.2 - 0.0 - - - - - - -
30/10:30am 11.1 NNW 8 11 1022.5 - 0.0 - - - - - - -
30/10:00am 10.8 NNW 9 11 1023.0 - 0.0 - - - - - - -
30/09:30am 10.2 N 8 9 1023.3 - 0.0 - - - - - - -
30/09:00am 9.3 NNW 7 9 1023.5 - 0.0 - - - - - - -
30/08:30am 8.8 NNW 6 7 1023.7 - 0.0 - - - - - - -
30/08:00am 8.1 NNW 6 7 1023.8 - 0.0 - - - - - - -
30/07:30am 8.2 N 4 5 1023.7 - 0.0 - - - - - - -
30/07:00am 7.5 NNW 5 6 1024.0 - 0.0 - - - - - - -
30/06:30am 7.2 NW 6 7 1024.1 - 0.0 - - - - - - -
30/06:00am 6.9 NW 5 6 1023.8 - 0.0 - - - - - - -
30/05:30am 6.2 NW 6 7 1023.6 - 0.0 - - - - - - -
30/05:00am 6.8 NW 6 8 1023.4 - 0.0 - - - - - - -
30/04:30am 6.5 WNW 5 7 1023.1 - 0.0 - - - - - - -
30/04:00am 7.0 NNW 4 6 1022.7 - 0.0 - - - - - - -
30/03:30am 6.5 WNW 5 6 1022.9 - 0.0 - - - - - - -
30/03:00am 6.4 WNW 5 7 1023.0 - 0.0 - - - - - - -
30/02:30am 7.2 NNW 4 5 1023.2 - 0.0 - - - - - - -
30/02:00am 7.4 NNW 5 6 1024.0 - 0.0 - - - - - - -
30/01:30am 7.2 NW 6 7 1024.7 - 0.0 - - - - - - -
30/01:00am 7.0 NW 5 6 1024.9 - 0.0 - - - - - - -
30/12:30am 7.2 NW 4 4 1024.8 - 0.0 - - - - - - -
30/12:00am 6.9 NNW 2 4 1024.8 - 0.0 - - - - - - -
 
Date/Time
EST
Temp
°C
Wind Pressure Rain since
9am
mm
Weather Cloud Vis
km
Sea
Height
m
Swell
Dir  Spd
kts
Gust
kts
hPa Trend Height
m
Period
s
Dir
29/11:30pm 7.1 NNW 3 4 1024.8 - 0.0 - - - - - - -
29/11:00pm 6.6 NNW 2 3 1024.7 - 0.0 - - - - - - -
29/10:30pm 7.5 NNW 1 2 1024.9 - 0.0 - - - - - - -
29/10:00pm 7.2 WNW 3 4 1024.9 - 0.0 - - - - - - -
29/09:30pm 7.5 WNW 3 3 1025.0 - 0.0 - - - - - - -
29/09:00pm 7.5 WNW 3 3 1025.1 - 0.0 - - - - - - -
29/08:30pm 7.6 WNW 3 5 1025.1 - 0.0 - - - - - - -
29/08:00pm 8.0 ENE 2 3 1025.0 - 0.0 - - - - - - -
29/07:30pm 8.0 E 3 3 1024.9 - 0.0 - - - - - - -
29/07:00pm 7.9 E 4 4 1024.7 - 0.0 - - - - - - -
29/06:30pm 8.4 CALM 0 3 1024.6 - 0.0 - - - - - - -
29/06:00pm 9.5 SSW 1 2 1024.4 - 0.0 - - - - - - -
29/05:30pm 9.2 E 2 3 1024.1 - 0.0 - - - - - - -
29/05:00pm 9.6 E 3 5 1023.8 - 0.0 - - - - - - -
29/04:30pm 9.7 ESE 5 7 1023.5 - 0.0 - - - - - - -
29/04:00pm 10.2 E 6 7 1023.4 - 0.0 - - - - - - -
29/03:30pm 10.2 ESE 9 10 1023.3 - 0.0 - - - - - - -
29/03:00pm 10.4 ESE 9 10 1023.2 - 0.0 - - - - - - -
29/02:30pm 10.3 ESE 9 11 1023.1 - 0.0 - - - - - - -
29/02:00pm 10.2 ESE 9 11 1023.0 - 0.0 - - - - - - -
29/01:30pm 10.2 ESE 10 11 1023.1 - 0.0 - - - - - - -
29/01:00pm 10.4 ESE 8 10 1023.2 - 0.0 - - - - - - -
29/12:30pm 10.3 ESE 9 11 1023.4 - 0.0 - - - - - - -
29/12:00pm 10.3 SSE 4 5 1023.8 - 0.0 - - - - - - -
29/11:30am 10.0 S 3 4 1024.1 - 0.0 - - - - - - -
29/11:00am 9.6 S 2 3 1024.1 - 0.0 - - - - - - -
29/10:30am 9.2 W 2 3 1024.2 - 0.0 - - - - - - -
29/10:00am 9.0 N 2 3 1024.6 - 0.0 - - - - - - -
29/09:30am 8.0 N 3 4 1024.5 - 0.0 - - - - - - -
29/09:00am 8.3 NNW 4 5 1024.5 - 0.0 - - - - - - -
29/08:30am 6.9 WNW 6 7 1024.2 - 0.0 - - - - - - -
29/08:00am 6.9 WNW 5 6 1024.0 - 0.0 - - - - - - -
29/07:30am 6.2 WNW 6 7 1023.8 - 0.0 - - - - - - -
29/07:00am 5.6 WNW 7 9 1023.5 - 0.0 - - - - - - -
29/06:30am 5.5 WNW 11 13 1023.0 - 0.0 - - - - - - -
29/06:00am 5.5 WNW 8 9 1022.9 - 0.0 - - - - - - -
29/05:30am 6.0 W 5 6 1022.5 - 0.0 - - - - - - -
29/05:00am 5.8 WNW 6 6 1022.4 - 0.0 - - - - - - -
29/04:30am 6.2 WNW 5 8 1022.3 - 0.0 - - - - - - -
29/04:00am 6.4 WNW 4 6 1021.9 - 0.0 - - - - - - -
29/03:30am 5.9 WNW 6 8 1021.8 - 0.0 - - - - - - -
29/03:00am 5.9 WNW 7 8 1021.7 - 0.0 - - - - - - -
29/02:30am 6.5 W 3 4 1021.5 - 0.0 - - - - - - -
29/02:00am 5.7 NW 5 7 1021.3 - 0.0 - - - - - - -
29/01:30am 6.1 WNW 10 13 1021.3 - 0.0 - - - - - - -
29/01:00am 6.0 WNW 8 9 1021.1 - 0.0 - - - - - - -
29/12:30am 5.8 WNW 8 10 1020.8 - 0.0 - - - - - - -

Other Formats:

Comma delimited format used in spreadsheet applications
http://www.bom.gov.au/fwo/IDT60701/IDT60701.95988.axf

JavaScript Object Notation format (JSON) in row-major order
http://www.bom.gov.au/fwo/IDT60701/IDT60701.95988.json